createdAt,value
2023-03-16T00:02:10.332Z,1.40
2023-03-16T00:04:38.152Z,1.50
2023-03-16T00:07:10.249Z,1.50
2023-03-16T00:09:41.182Z,1.40
2023-03-16T00:12:15.641Z,1.50
2023-03-16T00:14:44.040Z,1.60
2023-03-16T00:17:19.227Z,1.50
2023-03-16T00:19:54.895Z,1.50
2023-03-16T00:22:23.976Z,1.60
2023-03-16T00:24:50.717Z,1.60
2023-03-16T00:27:17.616Z,1.60
2023-03-16T00:29:48.214Z,1.60
2023-03-16T00:32:20.147Z,1.70
2023-03-16T00:34:47.493Z,1.70
2023-03-16T00:37:17.426Z,1.50
2023-03-16T00:39:45.893Z,1.30
2023-03-16T00:42:14.927Z,1.20
2023-03-16T00:44:41.786Z,1.30
2023-03-16T00:47:09.378Z,1.50
2023-03-16T00:49:36.763Z,1.60
2023-03-16T00:52:05.366Z,1.60
2023-03-16T00:54:32.821Z,1.60
2023-03-16T00:57:00.349Z,1.50
2023-03-16T00:59:27.581Z,1.60
2023-03-16T01:01:55.346Z,1.50
2023-03-16T01:04:23.033Z,1.50
2023-03-16T01:06:50.098Z,1.50
2023-03-16T01:09:16.814Z,1.50
2023-03-16T01:11:43.759Z,1.50
2023-03-16T01:14:10.870Z,1.50
2023-03-16T01:16:37.989Z,1.60
2023-03-16T01:19:04.807Z,1.60
2023-03-16T01:21:33.662Z,1.60
2023-03-16T01:24:00.395Z,1.60
2023-03-16T01:26:27.986Z,1.60
2023-03-16T01:28:54.929Z,1.60
2023-03-16T01:31:21.878Z,1.60
2023-03-16T01:33:48.742Z,1.50
2023-03-16T01:36:18.279Z,1.60
2023-03-16T01:38:45.474Z,1.60
2023-03-16T01:41:12.829Z,1.50
2023-03-16T01:43:41.246Z,1.50
2023-03-16T01:46:07.993Z,1.50
2023-03-16T01:49:06.869Z,1.50
2023-03-16T01:51:57.384Z,1.50
2023-03-16T01:54:36.205Z,1.50
2023-03-16T01:57:10.870Z,1.40
2023-03-16T01:59:51.214Z,1.40
2023-03-16T02:02:21.557Z,1.40
2023-03-16T02:04:58.032Z,1.20
2023-03-16T02:07:28.797Z,0.80
2023-03-16T02:10:02.429Z,0.60
2023-03-16T02:12:30.174Z,0.70
2023-03-16T02:14:56.915Z,0.90
2023-03-16T02:17:27.082Z,1.00
2023-03-16T02:20:23.065Z,1.10
2023-03-16T02:22:55.660Z,1.10
2023-03-16T02:25:39.466Z,1.10
2023-03-16T02:28:39.774Z,1.10
2023-03-16T02:31:07.468Z,1.10
2023-03-16T02:33:35.003Z,1.20
2023-03-16T02:36:04.680Z,1.10
2023-03-16T02:38:31.701Z,1.10
2023-03-16T02:41:09.494Z,1.00
2023-03-16T02:43:37.840Z,1.00
2023-03-16T02:46:05.531Z,1.00
2023-03-16T02:48:43.809Z,0.90
2023-03-16T02:51:11.422Z,0.80
2023-03-16T02:53:38.420Z,0.80
2023-03-16T02:56:05.882Z,0.50
2023-03-16T03:01:20.297Z,0.50
2023-03-16T03:03:47.067Z,0.40
2023-03-16T03:06:13.891Z,0.30
2023-03-16T03:08:40.959Z,0.30
2023-03-16T03:11:07.793Z,0.40
2023-03-16T03:13:35.130Z,0.40
2023-03-16T03:16:11.156Z,0.50
2023-03-16T03:18:38.375Z,0.40
2023-03-16T03:21:08.460Z,0.50
2023-03-16T03:23:46.872Z,0.40
2023-03-16T03:26:24.961Z,0.40
2023-03-16T03:28:55.109Z,0.30
2023-03-16T03:31:52.248Z,0.30
2023-03-16T03:34:28.561Z,0.20
2023-03-16T03:43:14.169Z,0.00
2023-03-16T03:46:51.263Z,0.10
2023-03-16T03:50:15.682Z,0.20
2023-03-16T04:02:03.848Z,0.10
2023-03-16T04:08:24.139Z,0.20
2023-03-16T04:10:56.608Z,0.10
2023-03-16T04:13:36.573Z,0.10
2023-03-16T04:26:01.509Z,-0.20
2023-03-16T04:35:47.150Z,-0.30
2023-03-16T04:38:26.615Z,-0.30
2023-03-16T04:41:45.523Z,-0.30
2023-03-16T04:45:09.638Z,-0.30
2023-03-16T04:49:07.847Z,-0.30
2023-03-16T04:51:35.554Z,-0.20
2023-03-16T04:54:02.654Z,-0.20
2023-03-16T04:56:29.785Z,-0.20
2023-03-16T04:59:00.096Z,-0.10
2023-03-16T05:01:28.163Z,-0.10
2023-03-16T05:04:19.769Z,-0.10
2023-03-16T05:06:46.772Z,-0.10
2023-03-16T05:09:13.978Z,-0.10
2023-03-16T05:11:41.374Z,-0.20
2023-03-16T05:14:08.284Z,-0.20
2023-03-16T05:16:35.092Z,-0.20
2023-03-16T05:19:05.426Z,-0.20
2023-03-16T05:21:34.320Z,-0.10
2023-03-16T05:24:01.214Z,-0.10
2023-03-16T05:26:28.149Z,-0.10
2023-03-16T05:28:58.683Z,-0.10
2023-03-16T05:31:28.815Z,-0.20
2023-03-16T05:33:56.253Z,-0.30
2023-03-16T05:36:24.982Z,-0.30
2023-03-16T05:38:55.180Z,-0.40
2023-03-16T05:41:22.984Z,-0.40
2023-03-16T05:43:49.826Z,-0.40
2023-03-16T05:46:18.451Z,-0.20
2023-03-16T05:49:07.961Z,-0.20
2023-03-16T05:52:15.722Z,-0.20
2023-03-16T05:54:56.873Z,-0.30
2023-03-16T05:57:48.785Z,-0.30
2023-03-16T06:00:26.444Z,-0.30
2023-03-16T06:03:38.520Z,-0.20
2023-03-16T06:06:14.238Z,-0.20
2023-03-16T06:25:17.816Z,-0.30
2023-03-16T06:27:58.857Z,-0.20
2023-03-16T06:30:40.422Z,-0.10
2023-03-16T06:36:17.914Z,-0.10
2023-03-16T06:41:52.779Z,0.00
2023-03-16T06:44:53.006Z,0.10
2023-03-16T06:47:30.327Z,0.10
2023-03-16T06:50:08.614Z,0.20
2023-03-16T06:52:44.346Z,0.30
2023-03-16T06:55:29.183Z,0.40
2023-03-16T07:01:04.940Z,0.50
2023-03-16T07:03:34.482Z,0.60
2023-03-16T07:06:03.567Z,0.60
2023-03-16T07:08:33.021Z,0.70
2023-03-16T07:11:02.704Z,0.80
2023-03-16T07:13:29.641Z,0.90
2023-03-16T07:15:56.374Z,1.00
2023-03-16T07:18:25.906Z,1.20
2023-03-16T07:20:53.769Z,1.20
2023-03-16T07:23:21.219Z,1.30
2023-03-16T07:25:50.333Z,1.40
2023-03-16T07:28:17.150Z,1.40
2023-03-16T07:31:00.457Z,1.50
2023-03-16T07:33:32.283Z,1.50
2023-03-16T07:35:59.682Z,1.60
2023-03-16T07:38:26.503Z,1.70
2023-03-16T07:40:53.314Z,1.80
2023-03-16T07:43:20.325Z,1.90
2023-03-16T07:45:51.725Z,2.10
2023-03-16T07:48:19.291Z,2.10
2023-03-16T07:50:48.178Z,2.20
2023-03-16T07:53:15.645Z,2.30
2023-03-16T07:55:43.086Z,2.40
2023-03-16T07:58:11.171Z,2.50
2023-03-16T08:00:38.984Z,2.60
2023-03-16T08:03:06.298Z,2.70
2023-03-16T08:05:33.116Z,2.80
2023-03-16T08:08:01.624Z,2.90
2023-03-16T08:10:29.387Z,3.00
2023-03-16T08:12:56.793Z,3.10
2023-03-16T08:15:24.953Z,3.20
2023-03-16T08:17:52.426Z,3.30
2023-03-16T08:20:19.291Z,3.40
2023-03-16T08:22:47.466Z,3.50
2023-03-16T08:25:14.869Z,3.50
2023-03-16T08:27:42.765Z,3.70
2023-03-16T08:30:11.623Z,3.80
2023-03-16T08:32:42.089Z,3.90
2023-03-16T08:35:12.390Z,4.00
2023-03-16T08:37:39.634Z,4.20
2023-03-16T08:40:10.610Z,4.40
2023-03-16T08:42:38.857Z,4.50
2023-03-16T08:45:12.380Z,4.50
2023-03-16T08:47:40.707Z,4.70
2023-03-16T08:50:08.789Z,4.90
2023-03-16T08:52:36.514Z,5.00
2023-03-16T08:55:05.673Z,5.10
2023-03-16T08:57:33.760Z,5.30
2023-03-16T09:00:01.345Z,5.50
2023-03-16T09:02:28.899Z,5.30
2023-03-16T09:04:56.192Z,5.10
2023-03-16T09:07:22.957Z,5.10
2023-03-16T09:09:50.775Z,5.10
2023-03-16T09:12:17.775Z,5.20
2023-03-16T09:14:45.945Z,5.20
2023-03-16T09:17:12.897Z,5.40
2023-03-16T09:19:51.165Z,5.60
2023-03-16T09:22:20.154Z,5.50
2023-03-16T09:24:48.396Z,5.50
2023-03-16T09:27:15.585Z,5.80
2023-03-16T09:29:42.977Z,6.00
2023-03-16T09:32:10.050Z,6.00
2023-03-16T09:34:37.067Z,6.00
2023-03-16T09:37:04.176Z,6.10
2023-03-16T09:39:31.879Z,6.20
2023-03-16T09:42:20.819Z,6.30
2023-03-16T09:45:05.545Z,6.40
2023-03-16T09:47:35.944Z,6.20
2023-03-16T09:50:07.926Z,6.30
2023-03-16T09:52:42.879Z,6.30
2023-03-16T09:55:32.079Z,6.50
2023-03-16T09:58:01.072Z,6.40
2023-03-16T10:00:38.676Z,6.80
2023-03-16T10:03:24.804Z,6.50
2023-03-16T10:05:59.360Z,6.40
2023-03-16T10:08:40.768Z,6.80
2023-03-16T10:11:33.624Z,7.00
2023-03-16T10:14:23.703Z,6.90
2023-03-16T10:16:52.774Z,6.90
2023-03-16T10:19:28.483Z,7.00
2023-03-16T10:21:58.333Z,7.10
2023-03-16T10:24:57.404Z,7.00
2023-03-16T10:27:33.838Z,7.20
2023-03-16T10:30:02.970Z,7.50
2023-03-16T10:32:35.596Z,7.70
2023-03-16T10:35:29.226Z,7.80
2023-03-16T10:37:57.190Z,7.40
2023-03-16T10:40:24.267Z,7.50
2023-03-16T10:42:50.940Z,7.40
2023-03-16T10:45:32.215Z,7.40
2023-03-16T10:48:13.153Z,7.40
2023-03-16T10:50:41.613Z,7.50
2023-03-16T10:53:19.710Z,7.50
2023-03-16T10:55:48.210Z,7.60
2023-03-16T10:58:38.965Z,7.80
2023-03-16T11:01:18.043Z,7.80
2023-03-16T11:03:51.282Z,7.50
2023-03-16T11:06:30.954Z,7.60
2023-03-16T11:09:19.513Z,7.40
2023-03-16T11:11:50.192Z,7.60
2023-03-16T11:14:21.317Z,7.70
2023-03-16T11:16:55.333Z,7.80
2023-03-16T11:19:27.274Z,8.10
2023-03-16T11:21:57.525Z,8.40
2023-03-16T11:24:49.298Z,8.10
2023-03-16T11:27:20.058Z,8.10
2023-03-16T11:30:16.297Z,8.10
2023-03-16T11:32:48.928Z,8.20
2023-03-16T11:35:19.587Z,8.10
2023-03-16T11:37:55.603Z,8.40
2023-03-16T11:40:38.564Z,8.40
2023-03-16T11:43:37.045Z,8.40
2023-03-16T11:46:11.441Z,8.70
2023-03-16T11:49:13.057Z,8.50
2023-03-16T11:51:41.139Z,8.70
2023-03-16T11:54:52.330Z,8.90
2023-03-16T11:57:53.730Z,8.80
2023-03-16T12:00:27.064Z,8.50
2023-03-16T12:03:31.916Z,8.50
2023-03-16T12:06:24.354Z,8.70
2023-03-16T12:09:11.166Z,8.80
2023-03-16T12:12:00.020Z,8.70
2023-03-16T12:14:45.072Z,8.40
2023-03-16T12:17:15.726Z,8.70
2023-03-16T12:20:05.837Z,8.60
2023-03-16T12:22:38.124Z,8.90
2023-03-16T12:25:16.955Z,9.10
2023-03-16T12:27:44.756Z,9.10
2023-03-16T12:30:20.859Z,9.30
2023-03-16T12:33:20.923Z,9.40
2023-03-16T12:36:14.591Z,9.40
2023-03-16T12:38:53.396Z,9.00
2023-03-16T12:41:34.961Z,9.10
2023-03-16T12:44:34.236Z,9.20
2023-03-16T12:47:24.677Z,9.50
2023-03-16T12:49:52.064Z,9.30
2023-03-16T12:52:18.831Z,9.40
2023-03-16T12:55:15.536Z,9.70
2023-03-16T12:57:43.751Z,9.60
2023-03-16T13:00:12.000Z,9.70
2023-03-16T13:02:44.986Z,9.80
2023-03-16T13:05:18.096Z,9.90
2023-03-16T13:08:05.804Z,10.00
2023-03-16T13:10:33.228Z,10.10
2023-03-16T13:13:15.129Z,9.90
2023-03-16T13:15:47.210Z,9.90
2023-03-16T13:18:16.974Z,9.60
2023-03-16T13:21:33.684Z,9.40
2023-03-16T13:24:18.606Z,9.80
2023-03-16T13:26:48.629Z,10.10
2023-03-16T13:29:29.542Z,9.90
2023-03-16T13:32:02.662Z,10.00
2023-03-16T13:34:38.103Z,10.00
2023-03-16T13:37:12.289Z,9.90
2023-03-16T13:39:38.966Z,9.80
2023-03-16T13:42:08.723Z,9.80
2023-03-16T13:44:40.209Z,10.00
2023-03-16T13:47:07.552Z,10.00
2023-03-16T13:49:44.217Z,10.30
2023-03-16T13:52:35.046Z,10.40
2023-03-16T13:55:07.350Z,10.20
2023-03-16T13:57:39.032Z,10.30
2023-03-16T14:00:21.418Z,10.60
2023-03-16T14:02:53.570Z,10.90
2023-03-16T14:05:28.066Z,11.10
2023-03-16T14:07:56.593Z,10.70
2023-03-16T14:10:26.450Z,10.50
2023-03-16T14:12:55.032Z,10.00
2023-03-16T14:15:25.900Z,10.10
2023-03-16T14:17:53.238Z,10.30
2023-03-16T14:20:25.956Z,10.00
2023-03-16T14:22:53.534Z,10.00
2023-03-16T14:25:27.477Z,10.00
2023-03-16T14:28:07.396Z,10.20
2023-03-16T14:30:34.113Z,10.40
2023-03-16T14:33:04.248Z,10.40
2023-03-16T14:35:32.442Z,10.40
2023-03-16T14:38:29.378Z,10.40
2023-03-16T14:41:05.020Z,10.40
2023-03-16T14:43:36.578Z,10.60
2023-03-16T14:46:05.680Z,10.40
2023-03-16T14:48:33.797Z,10.60
2023-03-16T14:51:02.363Z,10.30
2023-03-16T14:53:30.194Z,9.90
2023-03-16T14:55:58.120Z,9.70
2023-03-16T14:58:25.600Z,9.80
2023-03-16T15:00:53.726Z,9.70
2023-03-16T15:03:23.710Z,9.70
2023-03-16T15:05:52.025Z,9.60
2023-03-16T15:08:28.532Z,9.60
2023-03-16T15:10:57.313Z,9.60
2023-03-16T15:13:55.710Z,9.70
2023-03-16T15:16:23.132Z,9.80
2023-03-16T15:18:51.784Z,9.60
2023-03-16T15:21:24.787Z,9.80
2023-03-16T15:23:51.576Z,9.90
2023-03-16T15:26:28.488Z,10.00
2023-03-16T15:28:56.529Z,10.00
2023-03-16T15:31:23.847Z,10.00
2023-03-16T15:33:50.948Z,9.90
2023-03-16T15:36:19.916Z,9.80
2023-03-16T15:38:51.391Z,9.70
2023-03-16T15:41:18.376Z,9.70
2023-03-16T15:43:48.120Z,9.70
2023-03-16T15:46:15.266Z,9.60
2023-03-16T15:48:42.592Z,9.20
2023-03-16T15:51:21.626Z,9.40
2023-03-16T15:53:57.925Z,9.00
2023-03-16T15:56:30.030Z,9.00
2023-03-16T15:59:03.828Z,9.10
2023-03-16T16:01:37.580Z,8.90
2023-03-16T16:04:06.939Z,8.90
2023-03-16T16:06:33.924Z,8.80
2023-03-16T16:09:01.007Z,8.90
2023-03-16T16:11:28.808Z,9.10
2023-03-16T16:13:57.503Z,9.10
2023-03-16T16:16:28.731Z,9.10
2023-03-16T16:18:56.772Z,9.20
2023-03-16T16:21:28.041Z,9.10
2023-03-16T16:23:55.420Z,9.00
2023-03-16T16:26:48.356Z,9.00
2023-03-16T16:29:22.214Z,9.10
2023-03-16T16:31:49.466Z,9.00
2023-03-16T16:34:18.617Z,9.00
2023-03-16T16:36:45.568Z,8.90
2023-03-16T16:39:12.632Z,8.80
2023-03-16T16:41:41.808Z,8.80
2023-03-16T16:44:23.439Z,8.80
2023-03-16T16:46:51.908Z,8.80
2023-03-16T16:49:24.853Z,8.70
2023-03-16T16:51:52.611Z,8.70
2023-03-16T16:54:22.244Z,8.60
2023-03-16T16:56:54.099Z,8.60
2023-03-16T16:59:24.193Z,8.50
2023-03-16T17:01:54.016Z,8.50
2023-03-16T17:04:24.634Z,8.30
2023-03-16T17:06:58.935Z,8.30
2023-03-16T17:09:27.879Z,8.30
2023-03-16T17:11:58.714Z,8.20
2023-03-16T17:14:27.666Z,8.10
2023-03-16T17:16:55.152Z,8.00
2023-03-16T17:19:24.714Z,8.00
2023-03-16T17:21:53.779Z,7.90
2023-03-16T17:24:20.958Z,7.80
2023-03-16T17:26:52.224Z,7.80
2023-03-16T17:29:27.064Z,7.80
2023-03-16T17:31:54.186Z,7.80
2023-03-16T17:34:28.983Z,7.70
2023-03-16T17:36:56.388Z,7.70
2023-03-16T17:39:27.022Z,7.70
2023-03-16T17:42:00.666Z,7.70
2023-03-16T17:44:32.715Z,7.60
2023-03-16T17:46:59.449Z,7.40
2023-03-16T17:49:30.684Z,7.30
2023-03-16T17:51:57.686Z,7.30
2023-03-16T17:54:24.380Z,7.10
2023-03-16T17:56:53.865Z,7.10
2023-03-16T17:59:21.902Z,7.00
2023-03-16T18:01:49.080Z,7.00
2023-03-16T18:04:25.710Z,7.00
2023-03-16T18:06:53.095Z,6.80
2023-03-16T18:09:20.842Z,6.80
2023-03-16T18:11:49.987Z,6.80
2023-03-16T18:14:22.589Z,6.70
2023-03-16T18:16:49.560Z,6.70
2023-03-16T18:19:23.778Z,6.70
2023-03-16T18:21:51.396Z,6.60
2023-03-16T18:24:20.512Z,6.60
2023-03-16T18:26:47.204Z,6.60
2023-03-16T18:29:14.004Z,6.60
2023-03-16T18:31:42.134Z,6.50
2023-03-16T18:34:20.459Z,6.50
2023-03-16T18:36:47.261Z,6.10
2023-03-16T18:39:20.237Z,5.70
2023-03-16T18:41:47.433Z,5.40
2023-03-16T18:44:20.739Z,5.30
2023-03-16T18:46:48.580Z,5.20
2023-03-16T18:49:32.481Z,5.20
2023-03-16T18:54:40.481Z,5.10
2023-03-16T18:57:24.820Z,5.10
2023-03-16T18:59:51.683Z,5.00
2023-03-16T19:02:38.925Z,5.00
2023-03-16T19:05:14.268Z,4.90
2023-03-16T19:07:43.326Z,4.70
2023-03-16T19:10:28.168Z,4.60
2023-03-16T19:12:55.846Z,4.40
2023-03-16T19:15:24.521Z,4.40
2023-03-16T19:17:52.032Z,4.30
2023-03-16T19:20:21.968Z,4.30
2023-03-16T19:22:51.134Z,4.10
2023-03-16T19:25:31.345Z,4.10
2023-03-16T19:28:12.651Z,4.00
2023-03-16T19:30:39.448Z,4.00
2023-03-16T19:33:18.625Z,3.90
2023-03-16T19:35:55.993Z,3.80
2023-03-16T19:38:24.521Z,3.80
2023-03-16T19:40:57.871Z,3.70
2023-03-16T19:43:26.183Z,3.60
2023-03-16T19:45:54.653Z,3.50
2023-03-16T19:48:31.113Z,3.40
2023-03-16T19:50:57.833Z,3.40
2023-03-16T19:53:25.796Z,3.30
2023-03-16T19:55:53.658Z,3.30
2023-03-16T19:58:34.871Z,3.20
2023-03-16T20:01:02.200Z,3.20
2023-03-16T20:03:31.761Z,3.10
2023-03-16T20:05:58.538Z,3.10
2023-03-16T20:08:28.555Z,3.10
2023-03-16T20:11:10.502Z,3.00
2023-03-16T20:13:44.875Z,2.90
2023-03-16T20:16:30.343Z,2.90
2023-03-16T20:19:00.341Z,2.90
2023-03-16T20:21:29.867Z,2.80
2023-03-16T20:23:57.138Z,2.80
2023-03-16T20:26:27.518Z,2.90
2023-03-16T20:28:54.607Z,2.70
2023-03-16T20:31:24.910Z,2.80
2023-03-16T20:33:53.613Z,2.70
2023-03-16T20:36:22.036Z,2.70
2023-03-16T20:38:49.344Z,2.70
2023-03-16T20:41:28.028Z,2.60
2023-03-16T20:43:56.979Z,2.60
2023-03-16T20:46:27.371Z,2.50
2023-03-16T20:48:54.711Z,2.50
2023-03-16T20:55:05.325Z,2.30
2023-03-16T20:57:32.353Z,2.30
2023-03-16T21:00:00.040Z,2.30
2023-03-16T21:02:32.013Z,2.30
2023-03-16T21:05:00.390Z,2.20
2023-03-16T21:07:27.358Z,2.30
2023-03-16T21:09:54.321Z,2.30
2023-03-16T21:12:27.973Z,2.20
2023-03-16T21:14:56.997Z,2.20
2023-03-16T21:17:59.169Z,2.20
2023-03-16T21:20:46.751Z,2.20
2023-03-16T21:23:16.928Z,2.20
2023-03-16T21:26:03.769Z,2.30
2023-03-16T21:28:34.231Z,2.20
2023-03-16T21:31:03.088Z,2.10
